Grand Junction, CO

2:16 PM MDT on July 04, 2015 (GMT -0600)
Chipeta Ave south of Washington Park | | Change Station
CLOSE
Current Station
Personal Weather Station
Location: Grand Junction, CO
Elevation: 4603 ft
Nearby Weather Stations
Active Advisory: Areal Flood Advisory Active Notice: Public Information Statement

Elev 4603 ft 39.07 °N, 108.56 °W | Updated 2 seconds ago

Clear
Clear
93.3 °F
Feels Like 90 °F
N
0.0
Wind Variable Wind from East
Gusts 6.0 mph

Today
High -- | Low -- °F
--% Chance of Precip.
Yesterday
High -- | Low -- °F
Precip. -- in
5:53 AM 8:43 PM
Waning Gibbous, 90% visible
Pressure 29.74 in
Visibility 10.0 miles
Clouds Clear
Heat Index 90 °F
Dew Point 51 °F
Humidity 24%
Rainfall 0.00 in
Snow Depth Not available.
UV 13 out of 12
Pollen 3.70 out of 12
Air Quality Not available.
Flu Activity Not available.
METAR KGJT 041953Z 16005KT 10SM CLR 33/08 A2999 RMK AO2 LTG DSNT E SLP069 T03280083

More Conditions Fewer Conditions

Pressure 29.74 in
Visibility 10.0 miles
Clouds Clear
Heat Index 90 °F
Dew Point 51 °F
Humidity 24%
Rainfall 0.00 in
Snow Depth Not available.
UV 13 out of 12
Pollen 3.70 out of 12
Air Quality Not available.
Flu Activity Not available.
METAR KGJT 041953Z 16005KT 10SM CLR 33/08 A2999 RMK AO2 LTG DSNT E SLP069 T03280083

More Conditions Fewer Conditions

10-Day Weather Forecast

×

Almanac

Astronomy

Jul. 04, 2015 Rise Set
Actual Time
Civil Twilight
Nautical Twilight
Astronomical Twilight
Moon
Length of Visible Light
Length of Day
Tomorrow will be .
, % of the Moon is Illuminated

Today's Extremes

State Highs State Lows

Community

WunderPhotos

Upload Photos

1,835,085 photos uploaded!

WunderBlogs® & News

Nearby

Air Quality

  Air Quality AQ Index Pollutant
Not available.

Snow Depth

Station Depth Elevation

Earthquake Activity

City Distance Mag. Time & Date
Minimum magnitude displayed is 2.5.

Coastal Water Temperatures

Place Temperature

Stations

Nearby Weather Stations

Station Location Temp. Windchill Dew Point Humidity Wind Precip. Elev Updated Type
                   
Areal Flood Advisory
Statement as of 1:58 PM MDT on July 04, 2015

The National Weather Service in Grand Junction has issued a

* small stream Flood Advisory for...
west central Eagle County in northwestern Colorado...
east central Garfield County in northwestern Colorado...

* until 445 PM MDT

* at 152 PM MDT... Doppler radar indicated heavy rain due to
thunderstorms. This will cause small stream flooding in the
advisory area. Up to one inch of rain has already fallen.

* Some locations that will experience flooding include... the
Colorado River Road north of Dotsero to Sweetwater Road... and also
Deep Creek Road and Sweetwater Road.

Precautionary/preparedness actions...

Turn around... dont drown. Never drive your vehicle into areas where
the water covers the roadway.


Lat... Lon 3984 10706 3969 10696 3963 10718 3973 10732
      3986 10731


Eh